Time;durP1;ratioP1;P1;durP2;ratioP2;P2;SDS_P1;SDS_P2;PMS_P1;PMS_P2;Temp;Humidity;BMP_temperature;BMP_pressure;BME280_temperature;BME280_humidity;BME280_pressure;Samples;Min_cycle;Max_cycle;Signal;HPM_P1;HPM_P2
2023/03/19 00:01:20;;;;;;;8.45;6.50;;;;;;;10.08;100.00;100516.38;5003354;28;20041;-78
2023/03/19 00:03:47;;;;;;;7.32;5.57;;;;;;;10.01;100.00;100512.06;5006266;28;20053;-83
2023/03/19 00:06:16;;;;;;;9.15;6.60;;;;;;;9.96;100.00;100519.97;5006391;28;20041;-77
2023/03/19 00:08:43;;;;;;;8.35;5.90;;;;;;;9.96;100.00;100519.06;4986466;28;20372;-78
2023/03/19 00:11:11;;;;;;;6.78;5.43;;;;;;;9.97;100.00;100516.44;5004689;28;20101;-76
2023/03/19 00:13:37;;;;;;;9.02;6.05;;;;;;;9.94;100.00;100514.72;4988912;28;20046;-76
2023/03/19 00:16:05;;;;;;;6.95;5.53;;;;;;;9.90;100.00;100522.63;5004341;28;20056;-78
2023/03/19 00:18:32;;;;;;;8.48;7.07;;;;;;;9.84;100.00;100520.94;5001910;28;20472;-80
2023/03/19 00:21:00;;;;;;;7.75;6.07;;;;;;;9.79;100.00;100522.72;5001853;28;20045;-80
2023/03/19 00:23:26;;;;;;;7.05;5.70;;;;;;;9.73;100.00;100521.00;5001135;28;20077;-78
2023/03/19 00:25:54;;;;;;;9.82;6.35;;;;;;;9.70;100.00;100528.00;5005461;28;20060;-75
2023/03/19 00:28:20;;;;;;;8.52;5.90;;;;;;;9.67;100.00;100525.41;5008581;28;20503;-77
2023/03/19 00:30:47;;;;;;;7.65;6.18;;;;;;;9.68;100.00;100530.63;4988254;28;20038;-81
2023/03/19 00:33:14;;;;;;;7.22;5.75;;;;;;;9.68;100.00;100532.38;5007432;28;20595;-77
2023/03/19 00:35:40;;;;;;;7.38;5.90;;;;;;;9.64;100.00;100528.91;5007003;28;20049;-77
2023/03/19 00:38:07;;;;;;;5.57;5.03;;;;;;;9.61;100.00;100534.16;4990026;28;20136;-76
2023/03/19 00:40:33;;;;;;;6.10;5.05;;;;;;;9.53;100.00;100520.25;5004900;28;20040;-82
2023/03/19 00:43:00;;;;;;;6.70;5.03;;;;;;;9.45;100.00;100530.78;4991084;28;20465;-78
2023/03/19 00:45:29;;;;;;;7.35;5.78;;;;;;;9.38;100.00;100531.69;5006492;28;20046;-82
2023/03/19 00:47:59;;;;;;;5.43;4.60;;;;;;;9.25;100.00;100523.91;4989100;28;20525;-81
2023/03/19 00:50:25;;;;;;;7.22;5.78;;;;;;;9.13;100.00;100529.22;4986981;28;20045;-77
2023/03/19 00:52:52;;;;;;;7.45;5.75;;;;;;;9.03;100.00;100520.53;5000824;28;20057;-82
2023/03/19 00:55:22;;;;;;;8.25;7.45;;;;;;;8.96;100.00;100525.81;5004490;28;20472;-80
2023/03/19 00:57:48;;;;;;;8.00;6.25;;;;;;;8.87;100.00;100527.59;5005413;28;20037;-78
2023/03/19 01:00:15;;;;;;;8.43;6.60;;;;;;;8.81;100.00;100514.56;4991291;28;20045;-76
2023/03/19 01:02:41;;;;;;;7.97;6.55;;;;;;;8.75;100.00;100522.44;4986517;28;20534;-76
2023/03/19 01:05:08;;;;;;;9.73;7.35;;;;;;;8.70;100.00;100524.19;5006417;28;20037;-78
2023/03/19 01:07:35;;;;;;;7.38;6.32;;;;;;;8.67;100.00;100521.56;5005481;28;20052;-76
2023/03/19 01:10:02;;;;;;;8.52;7.68;;;;;;;8.63;100.00;100522.47;5004657;28;20065;-80
2023/03/19 01:12:28;;;;;;;8.82;6.28;;;;;;;8.56;100.00;100521.59;5008556;28;20048;-75
2023/03/19 01:14:55;;;;;;;8.95;6.70;;;;;;;8.52;100.00;100523.34;5005941;28;20046;-76
2023/03/19 01:17:21;;;;;;;11.57;7.45;;;;;;;8.46;100.00;100525.13;5005828;28;20049;-76
2023/03/19 01:19:49;;;;;;;11.43;7.68;;;;;;;8.42;100.00;100519.88;5006213;28;20042;-77
2023/03/19 01:22:16;;;;;;;9.13;7.85;;;;;;;8.38;100.00;100527.69;5005892;28;20129;-75
2023/03/19 01:24:43;;;;;;;14.98;8.98;;;;;;;8.33;100.00;100519.91;5010121;28;20052;-76
2023/03/19 01:27:10;;;;;;;13.23;8.45;;;;;;;8.30;100.00;100526.84;5007039;28;20079;-79
2023/03/19 01:29:37;;;;;;;10.88;8.35;;;;;;;8.26;100.00;100521.63;5008155;28;20057;-76
2023/03/19 01:32:03;;;;;;;13.93;10.15;;;;;;;8.24;100.00;100527.75;5024365;28;20038;-77
2023/03/19 01:34:30;;;;;;;18.63;14.52;;;;;;;8.21;100.00;100523.41;5004436;28;20041;-78
2023/03/19 01:36:56;;;;;;;15.65;13.18;;;;;;;8.21;100.00;100522.50;5010150;28;20041;-77
2023/03/19 01:39:23;;;;;;;17.15;12.88;;;;;;;8.20;100.00;100526.88;5009297;28;20376;-79
2023/03/19 01:41:50;;;;;;;12.73;9.77;;;;;;;8.19;100.00;100525.13;5008500;28;20503;-77
2023/03/19 01:44:44;;;;;;;13.50;9.85;;;;;;;8.22;100.00;100521.66;5008268;28;20120;-76
2023/03/19 01:47:31;;;;;;;9.25;8.32;;;;;;;8.20;100.00;100512.94;5005317;28;20467;-75
2023/03/19 01:49:59;;;;;;;12.02;8.13;;;;;;;8.17;100.00;100512.97;5006392;28;20490;-75
2023/03/19 01:52:29;;;;;;;13.65;10.02;;;;;;;8.11;100.00;100503.41;5012469;28;20507;-77
2023/03/19 01:54:58;;;;;;;16.60;9.63;;;;;;;8.07;100.00;100502.53;5008006;28;20060;-76
2023/03/19 01:57:25;;;;;;;12.23;9.13;;;;;;;8.04;100.00;100514.72;5004706;28;20038;-76
2023/03/19 01:59:55;;;;;;;12.38;8.15;;;;;;;7.95;100.00;100516.47;5001488;28;21011;-78
2023/03/19 02:02:30;;;;;;;11.10;8.85;;;;;;;7.91;100.00;100509.53;5004027;28;20080;-75
2023/03/19 02:05:24;;;;;;;7.70;6.90;;;;;;;7.89;100.00;100510.38;5009753;28;20444;-77
2023/03/19 02:07:53;;;;;;;12.02;8.35;;;;;;;7.85;100.00;100506.03;5012116;28;20163;-76
2023/03/19 02:10:22;;;;;;;11.38;8.27;;;;;;;7.84;100.00;100502.56;5009214;28;20050;-78
2023/03/19 02:12:49;;;;;;;9.73;7.75;;;;;;;7.83;100.00;100507.78;5007693;28;20057;-78
2023/03/19 02:15:16;;;;;;;8.95;8.05;;;;;;;7.82;100.00;100506.03;5010652;28;20049;-76
2023/03/19 02:17:42;;;;;;;10.40;7.70;;;;;;;7.81;100.00;100510.38;5028409;28;20042;-78
2023/03/19 02:20:19;;;;;;;9.30;8.35;;;;;;;7.81;100.00;100507.78;5010320;28;20379;-75
2023/03/19 02:23:04;;;;;;;10.07;7.80;;;;;;;7.78;100.00;100506.03;5028949;28;20044;-75
2023/03/19 02:25:43;;;;;;;10.32;7.85;;;;;;;7.78;100.00;100512.97;5005258;28;20081;-77
2023/03/19 02:28:10;;;;;;;10.55;9.35;;;;;;;7.75;100.00;100506.03;4989161;28;20041;-77
2023/03/19 02:30:37;;;;;;;12.70;9.55;;;;;;;7.73;100.00;100509.50;5007032;28;20103;-77
2023/03/19 02:33:05;;;;;;;10.48;9.38;;;;;;;7.71;100.00;100508.66;4989861;28;20159;-77
2023/03/19 02:35:34;;;;;;;12.48;9.63;;;;;;;7.69;100.00;100506.03;5006447;28;20148;-75
2023/03/19 02:38:03;;;;;;;15.57;9.38;;;;;;;7.68;100.00;100519.94;4989304;28;20446;-77
2023/03/19 02:40:34;;;;;;;13.15;10.15;;;;;;;7.65;100.00;100503.41;5004531;28;20056;-76
2023/03/19 02:43:01;;;;;;;13.90;9.60;;;;;;;7.64;100.00;100520.81;5008046;28;20706;-76
2023/03/19 02:45:31;;;;;;;12.85;8.55;;;;;;;7.61;100.00;100515.56;4990436;28;20046;-76
2023/03/19 02:47:59;;;;;;;11.38;9.93;;;;;;;7.62;100.00;100512.97;5006603;28;20476;-75
2023/03/19 02:50:26;;;;;;;10.63;8.45;;;;;;;7.62;100.00;100510.34;4990014;28;20768;-76
2023/03/19 02:52:52;;;;;;;12.07;9.07;;;;;;;7.62;100.00;100515.56;5006699;28;20872;-84
2023/03/19 02:55:20;;;;;;;12.57;9.88;;;;;;;7.68;100.00;100519.03;5005105;28;20045;-76
2023/03/19 02:57:46;;;;;;;11.10;9.23;;;;;;;7.71;100.00;100513.84;5005127;28;20042;-76
2023/03/19 03:00:15;;;;;;;11.43;9.25;;;;;;;7.72;100.00;100507.78;5004124;28;20042;-80
2023/03/19 03:02:42;;;;;;;13.77;8.45;;;;;;;7.72;100.00;100510.38;5005396;28;20115;-81
2023/03/19 03:05:09;;;;;;;10.45;8.23;;;;;;;7.74;100.00;100513.84;5007601;28;20133;-82
2023/03/19 03:07:35;;;;;;;9.88;8.38;;;;;;;7.74;100.00;100519.94;5007144;28;20050;-80
2023/03/19 03:10:02;;;;;;;10.88;9.15;;;;;;;7.72;100.00;100516.47;5006657;28;20048;-80
2023/03/19 03:12:28;;;;;;;10.05;8.48;;;;;;;7.70;100.00;100515.56;4989570;28;20041;-77
2023/03/19 03:14:55;;;;;;;15.98;9.63;;;;;;;7.70;100.00;100512.97;5004387;28;20049;-79
2023/03/19 03:17:22;;;;;;;9.32;8.00;;;;;;;7.67;100.00;100509.50;5007811;28;20743;-81
2023/03/19 03:19:48;;;;;;;10.05;7.72;;;;;;;7.60;100.00;100514.72;5008483;28;20087;-75
2023/03/19 03:22:14;;;;;;;9.95;8.95;;;;;;;7.58;100.00;100519.03;5006176;28;20092;-78
2023/03/19 03:24:41;;;;;;;10.70;8.45;;;;;;;7.59;100.00;100512.13;4987664;28;20470;-76
2023/03/19 03:27:08;;;;;;;13.02;8.25;;;;;;;7.57;100.00;100517.31;4989642;28;20506;-78
2023/03/19 03:29:35;;;;;;;10.55;8.32;;;;;;;7.57;100.00;100526.84;5004880;28;20443;-83
2023/03/19 03:32:02;;;;;;;10.73;8.13;;;;;;;7.54;100.00;100527.72;5025198;28;20679;-79
2023/03/19 03:34:28;;;;;;;9.73;8.32;;;;;;;7.55;100.00;100523.41;5011382;28;20060;-76
2023/03/19 03:36:55;;;;;;;14.98;8.85;;;;;;;7.53;100.00;100519.91;5008992;28;20034;-78
2023/03/19 03:39:21;;;;;;;12.00;8.52;;;;;;;7.51;100.00;100529.44;4986094;28;20049;-74
2023/03/19 03:41:48;;;;;;;12.35;7.95;;;;;;;7.49;100.00;100529.44;5007156;28;20782;-75
2023/03/19 03:44:14;;;;;;;12.02;8.43;;;;;;;7.46;100.00;100526.84;5010097;28;20392;-77
2023/03/19 03:46:42;;;;;;;10.23;7.78;;;;;;;7.45;100.00;100532.91;5009770;28;20057;-79
2023/03/19 03:49:08;;;;;;;18.40;8.55;;;;;;;7.44;100.00;100531.19;4993061;28;20053;-80
2023/03/19 03:51:35;;;;;;;10.80;8.32;;;;;;;7.41;100.00;100537.25;5006748;28;20099;-76
2023/03/19 03:54:01;;;;;;;9.57;8.55;;;;;;;7.44;100.00;100531.19;5006634;28;20045;-78
2023/03/19 03:56:28;;;;;;;12.05;7.18;;;;;;;7.45;100.00;100525.09;5008660;28;20137;-78
2023/03/19 03:58:55;;;;;;;10.02;7.78;;;;;;;7.44;100.00;100536.38;5004358;28;20064;-76
2023/03/19 04:01:22;;;;;;;11.32;7.68;;;;;;;7.43;100.00;100535.53;5003733;28;20045;-81
2023/03/19 04:03:48;;;;;;;10.00;7.47;;;;;;;7.44;100.00;100529.47;5003234;28;20049;-77
2023/03/19 04:06:19;;;;;;;9.93;7.30;;;;;;;7.44;100.00;100525.97;4991413;28;20051;-76
2023/03/19 04:08:51;;;;;;;7.97;6.40;;;;;;;7.48;100.00;100530.31;5019537;28;20072;-76
2023/03/19 04:11:17;;;;;;;8.60;7.57;;;;;;;7.52;100.00;100524.25;4990404;28;20837;-76
2023/03/19 04:13:44;;;;;;;8.25;7.35;;;;;;;7.58;100.00;100531.22;5027217;28;20058;-78
2023/03/19 04:16:11;;;;;;;9.75;6.90;;;;;;;7.61;100.00;100532.09;5009133;28;20121;-75
2023/03/19 04:18:38;;;;;;;9.20;7.28;;;;;;;7.62;100.00;100533.81;5009739;28;20037;-76
2023/03/19 04:21:06;;;;;;;9.98;7.68;;;;;;;7.63;100.00;100534.69;5007258;28;20048;-76
2023/03/19 04:23:32;;;;;;;8.05;6.50;;;;;;;7.65;100.00;100529.47;4986095;28;20496;-78
2023/03/19 04:26:05;;;;;;;10.15;6.93;;;;;;;7.65;100.00;100524.25;5006434;28;20061;-76
2023/03/19 04:28:32;;;;;;;9.93;6.97;;;;;;;7.69;100.00;100520.78;4992022;28;20136;-78
2023/03/19 04:31:04;;;;;;;10.48;7.70;;;;;;;7.71;100.00;100525.13;4989365;28;20148;-79
2023/03/19 04:33:32;;;;;;;10.27;7.30;;;;;;;7.72;100.00;100526.88;5006292;28;20488;-82
2023/03/19 04:35:59;;;;;;;8.18;6.00;;;;;;;7.73;100.00;100525.13;5008094;28;20064;-78
2023/03/19 04:38:28;;;;;;;9.32;6.97;;;;;;;7.74;100.00;100522.56;5006112;28;20033;-77
2023/03/19 04:40:56;;;;;;;7.40;6.38;;;;;;;7.73;100.00;100523.41;5021403;28;20057;-82
2023/03/19 04:43:23;;;;;;;9.93;7.20;;;;;;;7.73;100.00;100530.34;5004940;28;20131;-82
2023/03/19 04:45:50;;;;;;;7.68;6.88;;;;;;;7.71;100.00;100532.94;5004594;28;20041;-77
2023/03/19 04:48:17;;;;;;;8.13;5.95;;;;;;;7.68;100.00;100526.88;5020821;28;20049;-84
2023/03/19 04:50:45;;;;;;;7.85;6.65;;;;;;;7.65;100.00;100527.72;5003091;28;20057;-81
2023/03/19 04:53:12;;;;;;;5.65;5.15;;;;;;;7.64;100.00;100526.00;5006396;28;20072;-80
2023/03/19 04:55:39;;;;;;;6.50;5.82;;;;;;;7.70;100.00;100538.16;5021099;28;20122;-75
2023/03/19 04:58:07;;;;;;;8.15;6.15;;;;;;;7.73;100.00;100528.63;5007803;28;20124;-77
2023/03/19 05:00:34;;;;;;;6.82;5.93;;;;;;;7.78;100.00;100533.81;4989795;28;20049;-78
2023/03/19 05:03:00;;;;;;;8.60;5.90;;;;;;;7.82;100.00;100530.34;5007180;28;20053;-77
2023/03/19 05:05:27;;;;;;;7.63;5.97;;;;;;;7.85;100.00;100530.38;5008670;28;20037;-75
2023/03/19 05:07:53;;;;;;;6.53;5.78;;;;;;;7.92;100.00;100537.28;5008258;28;20033;-76
2023/03/19 05:10:20;;;;;;;9.10;5.55;;;;;;;7.94;100.00;100532.09;5004446;28;20049;-83
2023/03/19 05:12:47;;;;;;;6.13;5.57;;;;;;;8.00;100.00;100528.63;5005607;28;20049;-77
2023/03/19 05:15:14;;;;;;;9.40;5.82;;;;;;;8.06;100.00;100528.63;5010307;28;20033;-79
2023/03/19 05:17:41;;;;;;;9.60;6.45;;;;;;;8.13;100.00;100532.94;5021902;28;20117;-78
2023/03/19 05:20:10;;;;;;;7.72;6.63;;;;;;;8.19;100.00;100539.91;5006330;28;20478;-76
2023/03/19 05:22:37;;;;;;;7.32;5.18;;;;;;;8.23;100.00;100537.28;5007157;28;20136;-76
2023/03/19 05:25:04;;;;;;;7.38;5.72;;;;;;;8.26;100.00;100539.03;5021845;28;20137;-79
2023/03/19 05:27:30;;;;;;;8.48;5.60;;;;;;;8.28;100.00;100537.28;5007946;28;20041;-78
2023/03/19 05:29:57;;;;;;;8.15;5.13;;;;;;;8.28;100.00;100543.38;5006174;28;20037;-77
2023/03/19 05:32:24;;;;;;;6.03;5.32;;;;;;;8.32;100.00;100543.34;5009113;28;20033;-78
2023/03/19 05:34:50;;;;;;;8.35;5.22;;;;;;;8.31;100.00;100537.28;5007261;28;20123;-76
2023/03/19 05:37:17;;;;;;;6.03;5.43;;;;;;;8.36;100.00;100537.28;5007021;28;20510;-77
2023/03/19 05:39:43;;;;;;;5.57;5.07;;;;;;;8.39;100.00;100530.31;5012945;28;20041;-79
2023/03/19 05:42:10;;;;;;;8.68;5.28;;;;;;;8.44;100.00;100541.59;5011178;28;20095;-78
2023/03/19 05:44:36;;;;;;;8.45;5.00;;;;;;;8.50;100.00;100538.16;5010459;28;20120;-76
2023/03/19 05:47:03;;;;;;;5.43;4.97;;;;;;;8.55;100.00;100538.13;5011154;28;20060;-83
2023/03/19 05:49:30;;;;;;;5.45;4.88;;;;;;;8.60;100.00;100526.81;4995565;28;20111;-83
2023/03/19 05:51:57;;;;;;;6.20;5.22;;;;;;;8.68;100.00;100538.97;5026354;28;20104;-75
2023/03/19 05:54:23;;;;;;;5.97;5.38;;;;;;;8.73;100.00;100538.06;4991755;28;20049;-76
2023/03/19 05:56:50;;;;;;;6.57;5.15;;;;;;;8.80;100.00;100535.44;5010589;28;20033;-78
2023/03/19 05:59:17;;;;;;;6.45;5.00;;;;;;;8.84;100.00;100539.78;4997296;28;20049;-81
2023/03/19 06:01:46;;;;;;;12.50;7.13;;;;;;;8.88;100.00;100538.91;5012134;28;20484;-78
2023/03/19 06:04:16;;;;;;;7.20;5.70;;;;;;;8.92;100.00;100546.72;5012377;28;20060;-79
2023/03/19 06:06:43;;;;;;;5.07;4.05;;;;;;;8.96;100.00;100551.91;5026998;28;20041;-80
2023/03/19 06:09:09;;;;;;;7.18;4.75;;;;;;;9.02;100.00;100551.91;5011480;28;20048;-79
2023/03/19 06:11:38;;;;;;;6.75;4.53;;;;;;;9.07;100.00;100560.56;5011509;28;20064;-76
2023/03/19 06:14:04;;;;;;;4.55;3.88;;;;;;;9.11;100.00;100559.69;5010981;28;20116;-79
2023/03/19 06:16:31;;;;;;;4.38;3.95;;;;;;;9.16;100.00;100563.16;5008666;28;20040;-79
2023/03/19 06:18:57;;;;;;;5.50;5.00;;;;;;;9.21;100.00;100564.00;5012935;28;20049;-77
2023/03/19 06:21:28;;;;;;;4.57;3.97;;;;;;;9.25;100.00;100563.09;5013752;28;20072;-78
2023/03/19 06:23:57;;;;;;;10.13;5.18;;;;;;;9.30;100.00;100563.09;5012362;28;20045;-74
2023/03/19 06:26:25;;;;;;;5.00;3.72;;;;;;;9.36;100.00;100577.84;5010638;28;20450;-76
2023/03/19 06:28:52;;;;;;;4.55;4.13;;;;;;;9.40;100.00;100576.97;5009110;28;20041;-80
2023/03/19 06:31:20;;;;;;;6.13;3.83;;;;;;;9.44;100.00;100578.69;5002517;28;20064;-80
2023/03/19 06:33:46;;;;;;;5.43;3.88;;;;;;;9.50;100.00;100572.56;5007572;28;20059;-75
2023/03/19 06:36:13;;;;;;;4.65;3.50;;;;;;;9.58;100.00;100575.97;5010548;28;20049;-77
2023/03/19 06:38:39;;;;;;;7.97;3.88;;;;;;;9.68;100.00;100582.03;5012016;28;20045;-77
2023/03/19 06:41:06;;;;;;;8.23;4.63;;;;;;;9.77;100.00;100581.97;5006818;28;20180;-85
2023/03/19 06:43:35;;;;;;;4.82;3.65;;;;;;;9.84;100.00;100583.69;5010257;28;20052;-76
2023/03/19 06:46:05;;;;;;;4.45;3.55;;;;;;;9.88;100.00;100577.53;5028239;28;20045;-78
2023/03/19 06:48:33;;;;;;;3.92;3.45;;;;;;;9.91;100.00;100577.50;5010905;28;20045;-77
2023/03/19 06:51:00;;;;;;;6.85;3.75;;;;;;;9.97;100.00;100579.19;5011423;28;20041;-76
2023/03/19 06:53:28;;;;;;;8.30;4.57;;;;;;;10.00;100.00;100580.94;4993253;28;20042;-76
2023/03/19 06:55:54;;;;;;;4.82;3.97;;;;;;;10.03;100.00;100583.53;5009054;28;20042;-81
2023/03/19 06:58:21;;;;;;;6.63;4.05;;;;;;;10.04;100.00;100573.06;5012309;28;20083;-77
2023/03/19 07:00:47;;;;;;;6.50;3.90;;;;;;;10.06;100.00;100583.50;5025158;28;20048;-77
2023/03/19 07:03:14;;;;;;;5.00;3.22;;;;;;;10.05;100.00;100587.00;5023139;28;20045;-77
2023/03/19 07:05:40;;;;;;;4.68;3.90;;;;;;;10.07;100.00;100596.56;4990443;28;20940;-75
2023/03/19 07:08:10;;;;;;;5.20;3.53;;;;;;;10.10;100.00;100595.66;5005926;28;20056;-76
2023/03/19 07:10:38;;;;;;;5.30;3.92;;;;;;;10.13;100.00;100598.28;5004136;28;20049;-76
2023/03/19 07:13:05;;;;;;;6.22;3.80;;;;;;;10.17;100.00;100596.47;5022047;28;20045;-79
2023/03/19 07:15:32;;;;;;;5.80;3.30;;;;;;;10.17;100.00;100594.75;5024905;28;20044;-77
2023/03/19 07:17:59;;;;;;;4.43;3.90;;;;;;;10.19;100.00;100605.19;5008748;28;20069;-78
2023/03/19 07:20:25;;;;;;;4.32;3.95;;;;;;;10.20;100.00;100601.72;4993323;28;20052;-76
2023/03/19 07:22:52;;;;;;;4.80;3.40;;;;;;;10.23;100.00;100604.28;5012087;28;20041;-76
2023/03/19 07:25:18;;;;;;;4.00;3.60;;;;;;;10.29;100.00;100611.25;5006082;28;20066;-78
2023/03/19 07:27:45;;;;;;;6.55;3.30;;;;;;;10.35;100.00;100617.31;5007139;28;20057;-77
2023/03/19 07:30:13;;;;;;;5.85;3.65;;;;;;;10.41;100.00;100619.00;5008581;28;20046;-76
2023/03/19 07:32:40;;;;;;;5.97;3.20;;;;;;;10.42;100.00;100618.13;5006322;28;20049;-76
2023/03/19 07:35:08;;;;;;;2.92;2.60;;;;;;;10.44;100.00;100624.19;5007560;28;20053;-76
2023/03/19 07:37:34;;;;;;;4.50;3.20;;;;;;;10.46;100.00;100625.06;4989170;28;20054;-82
2023/03/19 07:40:01;;;;;;;3.83;3.03;;;;;;;10.51;100.00;100631.13;5003985;28;20480;-75
2023/03/19 07:42:30;;;;;;;3.17;2.50;;;;;;;10.57;100.00;100631.06;4983879;28;20065;-76
2023/03/19 07:44:56;;;;;;;2.78;2.50;;;;;;;10.68;100.00;100637.97;5006662;28;20783;-76
2023/03/19 07:47:23;;;;;;;7.75;3.00;;;;;;;10.77;100.00;100632.63;4988021;28;20054;-77
2023/03/19 07:49:49;;;;;;;3.72;2.90;;;;;;;10.86;100.00;100639.50;5003503;28;20046;-82
2023/03/19 07:52:17;;;;;;;10.70;4.05;;;;;;;10.93;100.00;100634.19;5004541;28;20057;-80
2023/03/19 07:54:44;;;;;;;2.97;2.78;;;;;;;11.01;100.00;100630.63;5002861;28;20082;-83
2023/03/19 07:57:11;;;;;;;3.33;2.75;;;;;;;11.11;100.00;100632.25;5002963;28;20052;-76
2023/03/19 07:59:37;;;;;;;8.85;4.18;;;;;;;11.19;100.00;100629.56;4999050;28;20042;-78
2023/03/19 08:02:04;;;;;;;5.20;3.33;;;;;;;11.35;98.87;100633.69;5003189;28;20048;-75
2023/03/19 08:04:30;;;;;;;4.07;3.13;;;;;;;11.57;96.88;100631.66;4986275;28;20141;-76
2023/03/19 08:06:57;;;;;;;4.93;2.78;;;;;;;11.78;96.12;100621.78;5000995;28;20151;-80
2023/03/19 08:09:23;;;;;;;4.60;2.95;;;;;;;11.93;94.91;100623.31;4988186;28;20054;-81
2023/03/19 08:11:50;;;;;;;3.60;2.45;;;;;;;12.00;94.19;100626.75;5004771;28;20046;-79
2023/03/19 08:14:21;;;;;;;5.28;2.88;;;;;;;12.02;93.83;100627.56;5005365;28;20034;-75
2023/03/19 08:16:48;;;;;;;2.83;2.60;;;;;;;12.03;94.17;100631.94;5005727;28;20049;-78
2023/03/19 08:19:15;;;;;;;2.58;2.10;;;;;;;12.06;93.94;100630.13;5002438;28;20046;-81
2023/03/19 08:21:42;;;;;;;2.47;2.33;;;;;;;12.07;94.06;100625.75;5005381;28;20041;-78
2023/03/19 08:24:09;;;;;;;5.00;2.67;;;;;;;12.03;93.32;100635.44;5000366;28;20092;-76
2023/03/19 08:26:36;;;;;;;4.28;2.78;;;;;;;11.97;93.79;100635.53;4990596;28;20469;-75
2023/03/19 08:29:03;;;;;;;3.30;2.53;;;;;;;11.92;93.76;100639.94;5007361;28;20118;-78
2023/03/19 08:31:30;;;;;;;3.35;2.65;;;;;;;12.47;92.96;100640.00;5005388;28;20042;-79
2023/03/19 08:33:58;;;;;;;4.20;3.33;;;;;;;13.67;88.92;100632.41;5005971;28;20138;-76
2023/03/19 08:36:25;;;;;;;3.28;2.00;;;;;;;14.80;83.36;100632.34;5010259;28;20072;-77
2023/03/19 08:38:53;;;;;;;3.08;2.45;;;;;;;15.40;78.30;100627.16;5005718;28;20084;-77
2023/03/19 08:41:30;;;;;;;3.50;2.40;;;;;;;16.11;74.35;100622.34;5004365;28;20688;-79
2023/03/19 08:43:56;;;;;;;4.95;2.35;;;;;;;16.68;73.25;100627.53;4985967;28;20042;-75
2023/03/19 08:46:23;;;;;;;5.38;2.13;;;;;;;17.07;72.06;100628.84;5007010;28;20151;-76
2023/03/19 08:48:49;;;;;;;3.40;2.28;;;;;;;17.62;67.74;100634.69;5007135;28;20042;-76
2023/03/19 08:51:16;;;;;;;3.58;2.10;;;;;;;18.12;66.37;100633.66;5005623;28;20467;-77
2023/03/19 08:53:42;;;;;;;4.40;2.05;;;;;;;18.66;64.76;100626.09;4990108;28;20057;-79
2023/03/19 08:56:09;;;;;;;2.20;1.50;;;;;;;18.83;62.72;100632.47;5004595;28;21365;-76
2023/03/19 08:58:35;;;;;;;2.65;1.55;;;;;;;18.20;65.08;100628.03;5008947;28;20038;-83
2023/03/19 09:01:09;;;;;;;4.57;2.95;;;;;;;17.41;66.09;100636.38;5006080;28;20052;-76
2023/03/19 09:03:37;;;;;;;2.60;2.25;;;;;;;16.76;68.82;100640.47;5000022;28;20088;-78
2023/03/19 09:06:07;;;;;;;2.83;1.50;;;;;;;16.46;69.87;100636.19;4998631;28;20050;-78
2023/03/19 09:08:35;;;;;;;4.10;2.10;;;;;;;16.51;70.30;100639.53;5005391;28;20037;-75
2023/03/19 09:11:04;;;;;;;2.83;1.70;;;;;;;16.69;69.69;100638.03;5002856;28;20052;-78
2023/03/19 09:13:31;;;;;;;2.38;1.40;;;;;;;16.94;68.15;100639.84;5005439;28;20061;-77
2023/03/19 09:15:57;;;;;;;2.53;1.52;;;;;;;17.68;67.32;100644.19;5005246;28;20052;-77
2023/03/19 09:18:24;;;;;;;1.38;1.30;;;;;;;17.67;66.50;100639.81;5004461;28;20050;-77
2023/03/19 09:20:52;;;;;;;4.28;1.63;;;;;;;17.16;66.38;100634.66;4997869;28;20045;-77
2023/03/19 09:23:20;;;;;;;1.95;1.73;;;;;;;16.67;68.57;100639.00;5000738;28;20050;-82
2023/03/19 09:25:46;;;;;;;1.77;1.02;;;;;;;16.19;69.94;100643.25;5002485;28;20064;-79
2023/03/19 09:28:13;;;;;;;2.90;1.85;;;;;;;15.94;71.24;100643.16;5004262;28;20057;-77
2023/03/19 09:30:39;;;;;;;1.30;1.17;;;;;;;15.97;71.93;100649.22;4985295;28;20042;-79
2023/03/19 09:33:09;;;;;;;1.17;0.90;;;;;;;15.99;71.71;100646.53;5002354;28;20053;-79
2023/03/19 09:35:38;;;;;;;3.50;1.88;;;;;;;15.88;72.28;100642.44;5003491;28;20050;-79
2023/03/19 09:38:05;;;;;;;2.55;1.45;;;;;;;15.84;73.08;100653.16;5004351;28;20105;-77
2023/03/19 09:40:41;;;;;;;2.25;2.05;;;;;;;15.78;72.64;100648.88;5001821;28;20040;-78
2023/03/19 09:43:53;;;;;;;5.28;2.28;;;;;;;15.63;72.56;100652.00;5002222;28;20788;-80
2023/03/19 09:46:38;;;;;;;3.15;1.48;;;;;;;15.58;73.30;100656.53;5006761;28;20045;-77
2023/03/19 09:49:24;;;;;;;1.80;1.45;;;;;;;15.99;72.07;100665.00;5003190;28;20037;-78
2023/03/19 09:52:30;;;;;;;2.83;1.80;;;;;;;16.28;70.39;100668.50;5005213;28;20045;-81
2023/03/19 09:55:04;;;;;;;2.85;1.20;;;;;;;16.94;68.75;100666.28;5004884;28;20072;-75
2023/03/19 09:57:32;;;;;;;1.08;0.90;;;;;;;17.36;67.32;100668.31;5004302;28;20107;-77
2023/03/19 09:59:58;;;;;;;1.63;1.00;;;;;;;17.62;67.03;100671.75;5005279;28;20122;-79
2023/03/19 10:02:41;;;;;;;1.20;1.20;;;;;;;17.93;64.93;100664.47;5003128;28;20118;-77
2023/03/19 10:05:58;;;;;;;1.27;1.02;;;;;;;17.77;64.17;100666.78;5006742;28;20053;-81
2023/03/19 10:08:55;;;;;;;1.55;1.10;;;;;;;17.59;64.67;100669.22;5003591;28;20065;-78
2023/03/19 10:11:38;;;;;;;1.17;1.10;;;;;;;17.58;65.53;100666.66;5005533;28;20154;-77
2023/03/19 10:14:42;;;;;;;2.13;1.00;;;;;;;17.50;65.55;100667.78;5004020;28;20496;-78
2023/03/19 10:17:20;;;;;;;2.00;1.75;;;;;;;17.41;66.33;100668.13;5005174;28;20045;-78
2023/03/19 10:19:57;;;;;;;1.25;1.00;;;;;;;17.38;65.99;100668.25;5001235;28;20770;-79
2023/03/19 10:22:36;;;;;;;1.40;0.82;;;;;;;17.42;66.10;100672.50;5000691;28;20057;-79
2023/03/19 10:25:04;;;;;;;1.10;1.00;;;;;;;17.73;65.00;100673.13;5019980;28;20045;-79
2023/03/19 10:27:32;;;;;;;0.80;0.70;;;;;;;18.67;62.61;100664.09;5009399;28;20514;-77
2023/03/19 10:29:58;;;;;;;2.15;0.85;;;;;;;19.68;56.44;100665.81;5024558;28;20053;-78
2023/03/19 10:32:51;;;;;;;0.90;0.80;;;;;;;20.87;52.29;100659.19;5006365;28;20077;-76
2023/03/19 10:35:45;;;;;;;2.47;0.77;;;;;;;21.69;49.91;100655.69;5007675;28;20048;-78
2023/03/19 10:38:24;;;;;;;2.65;0.90;;;;;;;21.95;46.90;100659.56;5007027;28;20574;-77
2023/03/19 10:41:34;;;;;;;0.93;0.80;;;;;;;22.62;44.96;100659.28;5010256;28;20472;-78
2023/03/19 10:44:12;;;;;;;3.33;1.08;;;;;;;22.80;45.12;100656.47;5004020;28;20061;-76
2023/03/19 10:46:40;;;;;;;1.17;1.00;;;;;;;22.27;44.74;100659.53;5004013;28;20037;-78
2023/03/19 10:49:15;;;;;;;3.05;1.05;;;;;;;22.33;44.36;100660.97;5010512;28;20052;-78
2023/03/19 10:51:48;;;;;;;2.40;0.90;;;;;;;22.36;44.63;100668.84;5009900;28;20049;-77
2023/03/19 10:54:27;;;;;;;2.03;1.38;;;;;;;21.86;43.92;100670.72;5025490;28;20514;-82
2023/03/19 10:57:00;;;;;;;1.30;1.08;;;;;;;21.18;45.15;100663.75;5010172;28;20037;-80
2023/03/19 10:59:29;;;;;;;2.33;1.05;;;;;;;21.47;44.91;100662.19;4988520;28;20246;-82
2023/03/19 11:02:07;;;;;;;2.22;1.23;;;;;;;21.68;44.62;100663.78;5026220;28;20045;-77
2023/03/19 11:04:34;;;;;;;1.00;1.00;;;;;;;21.69;44.29;100663.69;5009021;28;20045;-76
2023/03/19 11:07:12;;;;;;;1.85;0.65;;;;;;;21.79;43.55;100664.03;4993850;28;20088;-75
2023/03/19 11:09:42;;;;;;;2.05;0.75;;;;;;;21.66;43.84;100663.00;5021231;28;20041;-79
2023/03/19 11:12:24;;;;;;;1.55;1.00;;;;;;;20.88;44.13;100664.41;5003899;28;20480;-80
2023/03/19 11:14:53;;;;;;;1.60;1.08;;;;;;;19.85;46.60;100667.69;5010306;28;20120;-78
2023/03/19 11:17:56;;;;;;;1.50;0.90;;;;;;;19.31;48.28;100672.84;5010630;28;20124;-77
2023/03/19 11:20:36;;;;;;;1.55;1.00;;;;;;;20.29;47.22;100667.34;5025205;28;20049;-79
2023/03/19 11:23:12;;;;;;;2.90;1.00;;;;;;;21.70;43.32;100668.06;5007796;28;20055;-77
2023/03/19 11:25:52;;;;;;;1.67;0.73;;;;;;;22.57;42.15;100666.72;4991249;28;20233;-75
2023/03/19 11:28:25;;;;;;;1.58;0.98;;;;;;;23.50;38.82;100658.44;5008711;28;20041;-76
2023/03/19 11:31:20;;;;;;;4.15;1.00;;;;;;;22.98;39.38;100662.50;5002582;28;20492;-77
2023/03/19 11:33:58;;;;;;;2.17;1.25;;;;;;;22.64;41.29;100667.19;4986965;28;20056;-77